createdAt,value
2019-03-20T00:01:27.876Z,3.63
2019-03-20T00:03:55.393Z,4.90
2019-03-20T00:06:22.914Z,4.50
2019-03-20T00:08:50.420Z,4.27
2019-03-20T00:11:17.687Z,4.10
2019-03-20T00:13:45.071Z,4.30
2019-03-20T00:16:12.399Z,4.87
2019-03-20T00:18:40.076Z,6.37
2019-03-20T00:21:07.566Z,7.27
2019-03-20T00:23:36.171Z,6.13
2019-03-20T00:26:03.746Z,6.07
2019-03-20T00:28:31.402Z,7.37
2019-03-20T00:30:58.896Z,8.70
2019-03-20T00:33:26.619Z,6.90
2019-03-20T00:35:54.300Z,5.53
2019-03-20T00:38:21.971Z,5.43
2019-03-20T00:40:49.323Z,6.20
2019-03-20T00:43:16.774Z,6.13
2019-03-20T00:45:44.316Z,5.87
2019-03-20T00:48:11.869Z,4.87
2019-03-20T00:50:39.335Z,4.10
2019-03-20T00:53:07.940Z,3.93
2019-03-20T00:55:35.261Z,4.27
2019-03-20T00:58:03.060Z,4.53
2019-03-20T01:00:30.601Z,4.03
2019-03-20T01:02:58.188Z,4.27
2019-03-20T01:05:25.835Z,3.60
2019-03-20T01:07:53.589Z,4.53
2019-03-20T01:10:20.975Z,4.30
2019-03-20T01:12:49.006Z,4.33
2019-03-20T01:15:16.648Z,4.43
2019-03-20T01:17:44.240Z,4.33
2019-03-20T01:20:13.616Z,4.60
2019-03-20T01:22:41.275Z,4.20
2019-03-20T01:25:09.245Z,4.20
2019-03-20T01:27:36.752Z,4.87
2019-03-20T01:30:04.612Z,5.77
2019-03-20T01:32:32.200Z,4.23
2019-03-20T01:34:59.744Z,4.63
2019-03-20T01:37:27.166Z,4.30
2019-03-20T01:39:54.690Z,4.33
2019-03-20T01:42:22.186Z,4.63
2019-03-20T01:44:49.681Z,4.90
2019-03-20T01:47:17.038Z,4.67
2019-03-20T01:49:44.446Z,4.70
2019-03-20T01:52:11.746Z,4.70
2019-03-20T01:54:39.323Z,5.33
2019-03-20T01:57:06.644Z,4.67
2019-03-20T01:59:34.171Z,4.60
2019-03-20T02:02:01.635Z,5.87
2019-03-20T02:04:29.199Z,4.67
2019-03-20T02:06:56.622Z,4.30
2019-03-20T02:09:24.048Z,5.17
2019-03-20T02:11:51.474Z,4.30
2019-03-20T02:14:18.970Z,4.93
2019-03-20T02:16:46.344Z,5.50
2019-03-20T02:19:13.558Z,5.50
2019-03-20T02:21:41.227Z,6.23
2019-03-20T02:24:08.668Z,5.17
2019-03-20T02:26:35.963Z,5.77
2019-03-20T02:29:03.815Z,5.23
2019-03-20T02:31:31.203Z,5.27
2019-03-20T02:33:58.597Z,6.03
2019-03-20T02:36:26.061Z,6.20
2019-03-20T02:38:53.431Z,6.37
2019-03-20T02:41:21.294Z,5.77
2019-03-20T02:43:48.697Z,5.57
2019-03-20T02:46:15.970Z,6.13
2019-03-20T02:48:43.525Z,6.10
2019-03-20T02:51:11.041Z,6.00
2019-03-20T02:53:38.791Z,5.57
2019-03-20T02:56:06.600Z,6.07
2019-03-20T02:58:33.962Z,5.67
2019-03-20T03:01:01.622Z,5.83
2019-03-20T03:03:28.973Z,5.93
2019-03-20T03:06:06.814Z,5.97
2019-03-20T03:08:25.898Z,4.80
2019-03-20T03:10:55.711Z,5.83
2019-03-20T03:13:22.720Z,6.00
2019-03-20T03:15:50.173Z,6.43
2019-03-20T03:18:17.574Z,5.77
2019-03-20T03:20:44.966Z,5.57
2019-03-20T03:23:12.688Z,6.40
2019-03-20T03:25:39.993Z,6.23
2019-03-20T03:28:07.402Z,6.40
2019-03-20T03:30:35.348Z,7.60
2019-03-20T03:33:02.780Z,6.43
2019-03-20T03:35:30.473Z,6.33
2019-03-20T03:37:57.932Z,6.80
2019-03-20T03:40:25.476Z,6.03
2019-03-20T03:42:52.959Z,5.87
2019-03-20T03:45:20.522Z,6.20
2019-03-20T03:47:48.004Z,6.57
2019-03-20T03:50:15.395Z,6.17
2019-03-20T03:52:43.228Z,4.90
2019-03-20T03:55:10.531Z,6.13
2019-03-20T03:57:38.067Z,5.60
2019-03-20T04:00:06.293Z,4.77
2019-03-20T04:02:33.751Z,5.23
2019-03-20T04:05:01.379Z,5.83
2019-03-20T04:07:28.820Z,5.53
2019-03-20T04:09:56.121Z,5.70
2019-03-20T04:12:23.725Z,6.30
2019-03-20T04:14:51.071Z,6.57
2019-03-20T04:17:23.097Z,6.20
2019-03-20T04:19:50.625Z,5.90
2019-03-20T04:22:19.203Z,6.27
2019-03-20T04:24:46.823Z,6.40
2019-03-20T04:27:14.404Z,6.43
2019-03-20T04:29:42.107Z,6.37
2019-03-20T04:32:09.596Z,6.00
2019-03-20T04:34:37.241Z,6.87
2019-03-20T04:37:04.759Z,6.40
2019-03-20T04:39:32.077Z,6.53
2019-03-20T04:41:59.660Z,5.70
2019-03-20T04:44:27.348Z,6.00
2019-03-20T04:46:55.662Z,6.60
2019-03-20T04:49:23.169Z,6.10
2019-03-20T04:51:50.578Z,6.37
2019-03-20T04:54:17.908Z,6.70
2019-03-20T04:56:45.364Z,6.40
2019-03-20T04:59:12.870Z,6.00
2019-03-20T05:01:40.485Z,6.90
2019-03-20T05:04:08.026Z,6.30
2019-03-20T05:06:35.441Z,6.03
2019-03-20T05:09:04.299Z,5.80
2019-03-20T05:11:31.774Z,5.70
2019-03-20T05:13:59.226Z,5.77
2019-03-20T05:16:26.685Z,6.10
2019-03-20T05:18:54.250Z,6.07
2019-03-20T05:21:21.627Z,5.73
2019-03-20T05:23:48.954Z,5.77
2019-03-20T05:26:16.308Z,6.03
2019-03-20T05:28:43.637Z,5.23
2019-03-20T05:31:11.092Z,6.50
2019-03-20T05:33:38.462Z,6.03
2019-03-20T05:36:05.931Z,6.80
2019-03-20T05:38:33.444Z,6.00
2019-03-20T05:41:00.787Z,6.93
2019-03-20T05:43:28.273Z,6.37
2019-03-20T05:45:55.585Z,7.00
2019-03-20T05:48:23.037Z,5.83
2019-03-20T05:50:51.992Z,5.70
2019-03-20T05:53:19.578Z,5.83
2019-03-20T05:55:47.403Z,6.03
2019-03-20T05:58:14.737Z,6.40
2019-03-20T06:00:43.774Z,6.57
2019-03-20T06:03:11.110Z,6.53
2019-03-20T06:05:38.436Z,6.27
2019-03-20T06:08:05.777Z,6.63
2019-03-20T06:10:33.253Z,7.47
2019-03-20T06:13:01.830Z,7.47
2019-03-20T06:15:29.642Z,6.57
2019-03-20T06:17:57.032Z,6.67
2019-03-20T06:20:24.381Z,6.83
2019-03-20T06:22:51.749Z,6.73
2019-03-20T06:25:21.301Z,9.20
2019-03-20T06:27:48.464Z,7.67
2019-03-20T06:30:15.810Z,7.60
2019-03-20T06:32:43.161Z,8.17
2019-03-20T06:35:10.642Z,8.23
2019-03-20T06:37:38.148Z,8.23
2019-03-20T06:40:06.633Z,9.20
2019-03-20T06:42:34.048Z,10.47
2019-03-20T06:45:01.390Z,9.87
2019-03-20T06:47:29.126Z,9.67
2019-03-20T06:49:56.544Z,9.37
2019-03-20T06:52:24.543Z,9.30
2019-03-20T06:54:51.991Z,8.00
2019-03-20T06:57:19.521Z,8.47
2019-03-20T07:00:46.975Z,7.93
2019-03-20T07:03:19.067Z,8.50
2019-03-20T07:06:21.009Z,8.40
2019-03-20T07:08:52.177Z,7.63
2019-03-20T07:11:18.637Z,8.20
2019-03-20T07:13:45.706Z,8.00
2019-03-20T07:16:13.194Z,7.10
2019-03-20T07:18:40.715Z,8.27
2019-03-20T07:21:08.334Z,7.03
2019-03-20T07:23:35.952Z,7.60
2019-03-20T07:26:04.014Z,7.50
2019-03-20T07:28:31.486Z,7.43
2019-03-20T07:30:59.102Z,6.40
2019-03-20T07:33:26.611Z,7.20
2019-03-20T07:35:53.914Z,6.57
2019-03-20T07:38:21.652Z,7.10
2019-03-20T07:40:49.318Z,6.43
2019-03-20T07:43:16.818Z,6.97
2019-03-20T07:45:44.290Z,7.43
2019-03-20T07:48:21.456Z,6.23
2019-03-20T07:50:41.179Z,7.67
2019-03-20T07:53:08.580Z,7.00
2019-03-20T07:55:36.934Z,7.70
2019-03-20T07:58:04.704Z,7.13
2019-03-20T08:00:32.469Z,8.03
2019-03-20T08:02:59.677Z,8.43
2019-03-20T08:05:29.475Z,8.57
2019-03-20T08:08:06.381Z,8.43
2019-03-20T08:10:25.735Z,8.10
2019-03-20T08:12:53.541Z,9.00
2019-03-20T08:15:21.234Z,9.13
2019-03-20T08:17:48.786Z,8.23
2019-03-20T08:20:16.431Z,8.40
2019-03-20T08:22:43.975Z,8.97
2019-03-20T08:25:11.308Z,8.23
2019-03-20T08:27:38.810Z,7.83
2019-03-20T08:30:07.266Z,7.57
2019-03-20T08:32:34.820Z,6.97
2019-03-20T08:35:02.717Z,6.57
2019-03-20T08:37:30.618Z,7.47
2019-03-20T08:39:57.919Z,5.57
2019-03-20T08:42:26.404Z,5.87
2019-03-20T08:44:54.006Z,4.80
2019-03-20T08:47:21.401Z,5.10
2019-03-20T08:49:48.787Z,4.63
2019-03-20T08:52:16.352Z,5.00
2019-03-20T08:54:43.705Z,5.37
2019-03-20T08:57:11.016Z,5.70
2019-03-20T08:59:38.601Z,4.90
2019-03-20T09:02:06.107Z,5.33
2019-03-20T09:04:35.708Z,5.50
2019-03-20T09:07:03.017Z,5.40
2019-03-20T09:09:30.621Z,5.20
2019-03-20T09:11:58.326Z,5.17
2019-03-20T09:14:25.940Z,5.10
2019-03-20T09:16:53.399Z,4.87
2019-03-20T09:19:20.992Z,4.73
2019-03-20T09:21:48.801Z,5.27
2019-03-20T09:24:16.140Z,5.23
2019-03-20T09:26:43.582Z,4.47
2019-03-20T09:29:18.485Z,4.43
2019-03-20T09:31:40.170Z,5.03
2019-03-20T09:34:07.791Z,4.97
2019-03-20T09:36:43.147Z,4.30
2019-03-20T09:39:06.621Z,4.43
2019-03-20T09:41:34.099Z,5.37
2019-03-20T09:44:01.570Z,5.67
2019-03-20T09:46:28.926Z,5.40
2019-03-20T09:48:56.439Z,4.27
2019-03-20T09:51:23.813Z,4.27
2019-03-20T09:53:51.271Z,3.83
2019-03-20T09:56:19.848Z,3.93
2019-03-20T09:58:47.209Z,3.30
2019-03-20T10:01:14.918Z,2.93
2019-03-20T10:03:42.355Z,3.20
2019-03-20T10:06:09.788Z,2.90
2019-03-20T10:08:37.281Z,2.73
2019-03-20T10:11:04.625Z,2.13
2019-03-20T10:13:32.114Z,2.90
2019-03-20T10:15:59.674Z,2.27
2019-03-20T10:18:27.214Z,2.13
2019-03-20T10:20:55.124Z,2.30
2019-03-20T10:23:22.995Z,2.40
2019-03-20T10:25:50.382Z,2.40
2019-03-20T10:28:18.231Z,3.00
2019-03-20T10:30:45.809Z,2.73
2019-03-20T10:33:13.507Z,2.60
2019-03-20T10:35:49.905Z,2.30
2019-03-20T10:38:10.444Z,2.70
2019-03-20T10:40:37.897Z,2.87
2019-03-20T10:43:05.385Z,2.70
2019-03-20T10:45:32.860Z,2.83
2019-03-20T10:48:00.441Z,2.73
2019-03-20T10:50:27.881Z,2.77
2019-03-20T10:52:55.502Z,2.77
2019-03-20T10:55:23.413Z,2.97
2019-03-20T10:57:50.853Z,3.17
2019-03-20T11:00:19.360Z,2.97
2019-03-20T11:02:46.887Z,2.67
2019-03-20T11:05:16.611Z,3.20
2019-03-20T11:07:44.192Z,2.70
2019-03-20T11:10:13.490Z,2.80
2019-03-20T11:12:40.913Z,2.53
2019-03-20T11:15:10.166Z,2.80
2019-03-20T11:17:37.642Z,3.07
2019-03-20T11:20:05.343Z,2.70
2019-03-20T11:22:32.680Z,3.30
2019-03-20T11:25:00.434Z,3.50
2019-03-20T11:27:29.612Z,3.43
2019-03-20T11:29:57.188Z,3.00
2019-03-20T11:32:25.618Z,2.53
2019-03-20T11:34:53.602Z,2.90
2019-03-20T11:37:20.956Z,2.60
2019-03-20T11:39:49.470Z,2.50
2019-03-20T11:42:17.286Z,2.80
2019-03-20T11:44:44.917Z,2.47
2019-03-20T11:47:12.314Z,2.30
2019-03-20T11:49:39.808Z,2.40
2019-03-20T11:52:07.283Z,2.97
2019-03-20T11:54:35.218Z,3.33
2019-03-20T11:57:02.692Z,2.57
2019-03-20T11:59:30.180Z,2.73
2019-03-20T12:01:57.857Z,2.83
2019-03-20T12:04:25.329Z,2.50
2019-03-20T12:06:53.396Z,2.73
2019-03-20T12:09:20.961Z,2.30
2019-03-20T12:11:48.345Z,2.93
2019-03-20T12:14:15.713Z,2.80
2019-03-20T12:16:43.073Z,2.97
2019-03-20T12:19:10.550Z,2.90
2019-03-20T12:21:37.935Z,2.63
2019-03-20T12:24:07.243Z,2.70
2019-03-20T12:26:34.852Z,2.10
2019-03-20T12:29:02.590Z,2.50
2019-03-20T12:31:30.012Z,2.33
2019-03-20T12:33:57.493Z,2.63
2019-03-20T12:36:24.853Z,2.97
2019-03-20T12:38:52.169Z,3.20
2019-03-20T12:41:19.532Z,3.20
2019-03-20T12:43:47.544Z,3.00
2019-03-20T12:46:15.026Z,2.80
2019-03-20T12:48:42.501Z,2.90
2019-03-20T12:51:09.846Z,3.30
2019-03-20T12:53:37.165Z,2.73
2019-03-20T12:56:04.603Z,3.20
2019-03-20T12:58:32.183Z,2.70
2019-03-20T13:00:59.513Z,2.80
2019-03-20T13:03:26.818Z,2.83
2019-03-20T13:05:54.340Z,2.37
2019-03-20T13:08:21.780Z,2.43
2019-03-20T13:10:49.389Z,2.60
2019-03-20T13:13:16.865Z,2.63
2019-03-20T13:15:44.351Z,2.60
2019-03-20T13:18:11.878Z,2.87
2019-03-20T13:20:39.247Z,2.20
2019-03-20T13:23:08.887Z,1.93
2019-03-20T13:25:36.790Z,2.03
2019-03-20T13:28:04.509Z,2.03
2019-03-20T13:30:37.903Z,2.20
2019-03-20T13:33:05.408Z,2.77
2019-03-20T13:35:33.225Z,2.90
2019-03-20T13:38:00.729Z,2.17
2019-03-20T13:40:28.207Z,2.23
2019-03-20T13:42:55.697Z,2.27
2019-03-20T13:45:23.172Z,2.23
2019-03-20T13:47:50.519Z,2.07
2019-03-20T13:50:18.003Z,2.57
2019-03-20T13:52:45.571Z,2.67
2019-03-20T13:55:13.669Z,2.90
2019-03-20T13:57:41.466Z,2.60
2019-03-20T14:00:14.184Z,2.33
2019-03-20T14:02:41.893Z,2.20
2019-03-20T14:05:09.210Z,2.27
2019-03-20T14:07:36.568Z,1.80
2019-03-20T14:10:04.756Z,2.33
2019-03-20T14:12:33.526Z,2.43
2019-03-20T14:15:01.120Z,2.57
2019-03-20T14:17:28.426Z,2.40
2019-03-20T14:19:55.721Z,2.57
2019-03-20T14:22:23.041Z,2.53
2019-03-20T14:24:50.390Z,2.27
2019-03-20T14:27:18.185Z,2.20
2019-03-20T14:29:45.670Z,2.33
2019-03-20T14:32:13.085Z,2.37
2019-03-20T14:34:40.523Z,2.43
2019-03-20T14:37:08.037Z,2.43
2019-03-20T14:39:35.361Z,2.23
2019-03-20T14:42:03.181Z,2.70
2019-03-20T14:44:31.032Z,1.90
2019-03-20T14:46:58.552Z,2.20
2019-03-20T14:49:25.784Z,2.00
2019-03-20T14:51:53.630Z,2.20
2019-03-20T14:54:21.034Z,2.00
2019-03-20T14:56:48.506Z,1.60
2019-03-20T14:59:15.938Z,2.67
2019-03-20T15:01:43.447Z,2.23
2019-03-20T15:04:11.015Z,1.80
2019-03-20T15:06:38.555Z,2.23
2019-03-20T15:09:07.292Z,2.50
2019-03-20T15:11:34.788Z,2.30
2019-03-20T15:14:02.494Z,1.83
2019-03-20T15:16:29.854Z,1.80
2019-03-20T15:18:57.266Z,2.30
2019-03-20T15:21:24.772Z,2.10
2019-03-20T15:23:52.102Z,2.13
2019-03-20T15:26:19.449Z,2.93
2019-03-20T15:28:46.767Z,2.40
2019-03-20T15:31:14.120Z,2.27
2019-03-20T15:33:41.556Z,2.37
2019-03-20T15:36:14.403Z,3.27
2019-03-20T15:38:42.039Z,2.40
2019-03-20T15:41:10.059Z,2.60
2019-03-20T15:43:37.789Z,2.03
2019-03-20T15:46:05.411Z,2.97
2019-03-20T15:48:32.982Z,2.30
2019-03-20T15:51:00.795Z,2.80
2019-03-20T15:53:28.355Z,2.67
2019-03-20T15:55:55.907Z,2.50
2019-03-20T15:58:23.315Z,1.57
2019-03-20T16:00:51.087Z,2.40
2019-03-20T16:03:19.580Z,2.03
2019-03-20T16:05:46.928Z,2.07
2019-03-20T16:08:14.468Z,2.23
2019-03-20T16:10:41.825Z,2.33
2019-03-20T16:13:09.287Z,1.93
2019-03-20T16:15:36.623Z,1.97
2019-03-20T16:18:04.368Z,1.90
2019-03-20T16:20:32.003Z,2.80
2019-03-20T16:22:59.290Z,2.20
2019-03-20T16:25:26.745Z,2.43
2019-03-20T16:27:54.325Z,2.77
2019-03-20T16:30:22.191Z,3.27
2019-03-20T16:32:49.944Z,2.37
2019-03-20T16:35:17.429Z,2.60
2019-03-20T16:37:44.740Z,2.50
2019-03-20T16:40:14.891Z,2.20
2019-03-20T16:42:42.422Z,3.27
2019-03-20T16:45:12.839Z,2.60
2019-03-20T16:47:40.312Z,2.63
2019-03-20T16:50:09.334Z,3.10
2019-03-20T16:52:36.656Z,3.13
2019-03-20T16:55:04.776Z,3.40
2019-03-20T16:57:32.185Z,2.80
2019-03-20T16:59:59.707Z,2.87
2019-03-20T17:02:28.281Z,2.60
2019-03-20T17:04:55.721Z,2.60
2019-03-20T17:07:23.063Z,3.13
2019-03-20T17:09:50.388Z,2.67
2019-03-20T17:12:17.717Z,2.70
2019-03-20T17:14:45.350Z,2.70
2019-03-20T17:17:12.832Z,2.80
2019-03-20T17:19:40.378Z,2.37
2019-03-20T17:22:07.859Z,2.40
2019-03-20T17:24:35.228Z,2.63
2019-03-20T17:27:02.745Z,2.43
2019-03-20T17:29:31.332Z,2.57
2019-03-20T17:31:58.832Z,2.63
2019-03-20T17:34:26.816Z,2.60
2019-03-20T17:36:54.276Z,2.50
2019-03-20T17:39:21.614Z,2.23
2019-03-20T17:41:49.090Z,2.57
2019-03-20T17:44:16.607Z,2.27
2019-03-20T17:46:44.547Z,2.37
2019-03-20T17:49:12.639Z,2.60
2019-03-20T17:51:40.125Z,2.43
2019-03-20T17:54:07.703Z,2.53
2019-03-20T17:56:35.063Z,2.13
2019-03-20T17:59:02.423Z,2.67
2019-03-20T18:01:29.862Z,2.50
2019-03-20T18:03:57.318Z,3.97
2019-03-20T18:06:24.776Z,3.43
2019-03-20T18:08:52.147Z,3.53
2019-03-20T18:11:19.679Z,3.73
2019-03-20T18:13:47.407Z,4.07
2019-03-20T18:16:15.017Z,3.50
2019-03-20T18:18:42.484Z,4.80
2019-03-20T18:21:09.871Z,4.20
2019-03-20T18:23:37.518Z,4.00
2019-03-20T18:26:05.095Z,3.40
2019-03-20T18:28:32.683Z,3.97
2019-03-20T18:31:00.361Z,3.93
2019-03-20T18:33:27.787Z,3.80
2019-03-20T18:35:55.815Z,3.67
2019-03-20T18:38:23.518Z,3.83
2019-03-20T18:40:51.145Z,4.23
2019-03-20T18:43:19.176Z,4.30
2019-03-20T18:45:46.777Z,4.53
2019-03-20T18:48:14.442Z,4.40
2019-03-20T18:50:42.308Z,4.50
2019-03-20T18:53:09.936Z,4.47
2019-03-20T18:55:37.513Z,5.17
2019-03-20T18:58:05.156Z,5.00
2019-03-20T19:00:32.889Z,4.87
2019-03-20T19:03:00.967Z,4.50
2019-03-20T19:05:34.849Z,4.63
2019-03-20T19:08:03.043Z,4.37
2019-03-20T19:10:32.240Z,3.67
2019-03-20T19:13:00.673Z,4.30
2019-03-20T19:15:28.280Z,3.57
2019-03-20T19:17:55.897Z,3.83
2019-03-20T19:20:23.542Z,3.70
2019-03-20T19:22:51.242Z,4.20
2019-03-20T19:25:19.498Z,3.67
2019-03-20T19:27:47.375Z,5.07
2019-03-20T19:30:17.046Z,5.70
2019-03-20T19:32:45.031Z,6.33
2019-03-20T19:35:13.325Z,5.33
2019-03-20T19:37:40.759Z,4.80
2019-03-20T19:40:08.242Z,4.20
2019-03-20T19:42:35.710Z,3.90
2019-03-20T19:45:04.171Z,3.93
2019-03-20T19:47:31.731Z,3.70
2019-03-20T19:49:59.217Z,5.07
2019-03-20T19:52:27.020Z,5.23
2019-03-20T19:54:54.612Z,5.40
2019-03-20T19:57:22.101Z,4.53
2019-03-20T19:59:49.607Z,3.83
2019-03-20T20:02:17.047Z,2.90
2019-03-20T20:04:44.657Z,3.60
2019-03-20T20:07:12.164Z,3.53
2019-03-20T20:09:39.649Z,4.07
2019-03-20T20:12:07.183Z,4.90
2019-03-20T20:14:35.451Z,4.30
2019-03-20T20:17:03.096Z,3.83
2019-03-20T20:19:30.544Z,4.07
2019-03-20T20:21:58.746Z,3.47
2019-03-20T20:24:26.302Z,3.77
2019-03-20T20:26:54.011Z,3.40
2019-03-20T20:29:21.910Z,3.60
2019-03-20T20:31:49.468Z,4.10
2019-03-20T20:34:19.541Z,3.90
2019-03-20T20:36:47.052Z,4.17
2019-03-20T20:39:14.758Z,3.53
2019-03-20T20:41:42.604Z,3.63
2019-03-20T20:44:10.478Z,4.27
2019-03-20T20:46:39.292Z,3.43
2019-03-20T20:49:06.910Z,3.60
2019-03-20T20:51:34.393Z,3.37
2019-03-20T20:54:02.153Z,3.30
2019-03-20T20:56:29.844Z,3.17
2019-03-20T20:58:57.303Z,3.00
2019-03-20T21:01:24.627Z,3.57
2019-03-20T21:03:52.062Z,3.60
2019-03-20T21:06:19.875Z,4.07
2019-03-20T21:08:48.430Z,4.23
2019-03-20T21:11:16.035Z,4.40
2019-03-20T21:13:44.545Z,3.80
2019-03-20T21:16:12.411Z,4.37
2019-03-20T21:19:35.020Z,4.37
2019-03-20T21:22:45.936Z,3.77
2019-03-20T21:25:18.007Z,4.47
2019-03-20T21:28:22.792Z,5.17
2019-03-20T21:31:27.507Z,4.63
2019-03-20T21:34:39.559Z,4.63
2019-03-20T21:37:43.319Z,4.37
2019-03-20T21:40:13.073Z,5.13
2019-03-20T21:43:17.707Z,4.30
2019-03-20T21:46:32.606Z,4.20
2019-03-20T21:49:00.516Z,4.40
2019-03-20T21:51:28.418Z,4.03
2019-03-20T21:54:39.081Z,4.20
2019-03-20T21:57:18.594Z,3.90
2019-03-20T22:00:42.664Z,4.00
2019-03-20T22:03:10.675Z,4.30
2019-03-20T22:06:18.268Z,3.87
2019-03-20T22:08:46.638Z,3.80
2019-03-20T22:12:09.819Z,3.97
2019-03-20T22:14:37.694Z,3.90
2019-03-20T22:17:59.420Z,3.50
2019-03-20T22:20:51.181Z,3.87
2019-03-20T22:23:35.778Z,4.43
2019-03-20T22:26:49.142Z,3.50
2019-03-20T22:29:27.074Z,3.63
2019-03-20T22:32:44.565Z,4.33
2019-03-20T22:35:46.437Z,4.37
2019-03-20T22:38:51.396Z,4.13
2019-03-20T22:42:02.550Z,5.67
2019-03-20T22:44:30.750Z,5.30
2019-03-20T22:47:58.492Z,5.93
2019-03-20T22:51:04.088Z,4.97
2019-03-20T22:54:04.492Z,4.33
2019-03-20T22:57:27.306Z,5.37
2019-03-20T22:59:55.140Z,5.93
2019-03-20T23:02:54.272Z,5.20
2019-03-20T23:05:22.698Z,3.43
2019-03-20T23:07:50.882Z,3.97
2019-03-20T23:10:18.839Z,5.27
2019-03-20T23:12:47.200Z,4.50
2019-03-20T23:15:15.955Z,5.03
2019-03-20T23:17:43.806Z,5.23
2019-03-20T23:20:13.846Z,6.00
2019-03-20T23:22:41.893Z,6.60
2019-03-20T23:25:10.149Z,6.47
2019-03-20T23:27:38.296Z,5.20
2019-03-20T23:30:13.004Z,5.00
2019-03-20T23:32:41.004Z,5.90
2019-03-20T23:35:09.094Z,6.23
2019-03-20T23:37:37.282Z,3.83
2019-03-20T23:40:07.075Z,4.33
2019-03-20T23:42:34.954Z,4.47
2019-03-20T23:45:03.337Z,3.87
2019-03-20T23:47:46.280Z,6.07
2019-03-20T23:50:14.417Z,5.97
2019-03-20T23:52:42.366Z,5.13
2019-03-20T23:55:10.593Z,3.53
2019-03-20T23:57:38.466Z,3.90
